Time;durP1;ratioP1;P1;durP2;ratioP2;P2;SDS_P1;SDS_P2;PMS_P1;PMS_P2;Temp;Humidity;BMP_temperature;BMP_pressure;BME280_temperature;BME280_humidity;BME280_pressure;Samples;Min_cycle;Max_cycle;Signal;HPM_P1;HPM_P2
2024/01/13 00:00:49;;;;;;;65.37;32.17;;;;;;;-2.71;87.18;100901.81;1455534;89;22344;-78
2024/01/13 00:03:16;;;;;;;68.02;36.05;;;;;;;-2.72;87.49;100902.73;1447907;90;21508;-78
2024/01/13 00:05:42;;;;;;;63.55;31.42;;;;;;;-2.72;89.77;100897.55;1452629;90;21471;-78
2024/01/13 00:08:08;;;;;;;62.10;31.57;;;;;;;-2.73;92.31;100887.64;1451500;90;22344;-78
2024/01/13 00:10:34;;;;;;;65.25;31.55;;;;;;;-2.74;94.26;100888.97;1453416;89;21542;-78
2024/01/13 00:13:00;;;;;;;60.40;31.73;;;;;;;-2.74;96.94;100882.03;1460240;90;21404;-78
2024/01/13 00:15:26;;;;;;;70.80;32.85;;;;;;;-2.72;95.82;100875.06;1454637;90;21419;-78
2024/01/13 00:17:53;;;;;;;63.35;33.10;;;;;;;-2.69;99.70;100874.58;1450385;90;21486;-78
2024/01/13 00:20:19;;;;;;;59.23;31.40;;;;;;;-2.67;99.42;100874.92;1452432;89;22329;-78
2024/01/13 00:22:47;;;;;;;63.85;34.10;;;;;;;-2.66;100.00;100884.37;1457451;89;21390;-78
2024/01/13 00:25:15;;;;;;;62.70;32.13;;;;;;;-2.65;100.00;100874.85;1457009;90;22455;-78
2024/01/13 00:27:41;;;;;;;60.12;31.35;;;;;;;-2.65;100.00;100867.92;1459728;90;21478;-77
2024/01/13 00:30:08;;;;;;;60.78;33.60;;;;;;;-2.63;100.00;100879.55;1445728;90;21456;-78
2024/01/13 00:32:35;;;;;;;61.45;29.20;;;;;;;-2.62;100.00;100881.23;1445635;89;21471;-78
2024/01/13 00:35:01;;;;;;;67.92;32.95;;;;;;;-2.61;100.00;100879.89;1451072;89;21537;-78
2024/01/13 00:37:28;;;;;;;67.92;33.58;;;;;;;-2.57;100.00;100879.33;1449887;89;21530;-78
2024/01/13 00:39:54;;;;;;;71.37;32.53;;;;;;;-2.55;100.00;100877.54;1452871;90;22521;-78
2024/01/13 00:42:20;;;;;;;70.28;35.83;;;;;;;-2.53;100.00;100875.75;1454448;90;21496;-79
2024/01/13 00:44:46;;;;;;;79.40;39.27;;;;;;;-2.52;100.00;100878.73;1446807;90;22484;-80
2024/01/13 00:47:12;;;;;;;59.67;28.77;;;;;;;-2.50;100.00;100876.48;1451672;88;21479;-79
2024/01/13 00:49:38;;;;;;;65.40;34.75;;;;;;;-2.47;100.00;100886.32;1456936;89;22713;-77
2024/01/13 00:52:06;;;;;;;62.62;32.65;;;;;;;-2.46;100.00;100884.15;1448956;90;21434;-78
2024/01/13 00:54:32;;;;;;;61.53;31.93;;;;;;;-2.45;100.00;100887.13;1448249;90;21478;-77
2024/01/13 00:56:59;;;;;;;59.25;30.23;;;;;;;-2.46;100.00;100887.58;1454061;90;21524;-77
2024/01/13 00:59:25;;;;;;;68.62;35.52;;;;;;;-2.44;100.00;100892.27;1443537;90;21441;-77
2024/01/13 01:01:51;;;;;;;65.67;32.65;;;;;;;-2.44;100.00;100887.09;1449102;89;21547;-78
2024/01/13 01:04:17;;;;;;;56.42;32.35;;;;;;;-2.44;100.00;100887.09;1443787;90;22514;-77
2024/01/13 01:06:43;;;;;;;69.30;35.52;;;;;;;-2.47;100.00;100877.25;1463780;89;21534;-77
2024/01/13 01:09:09;;;;;;;57.80;29.20;;;;;;;-2.49;100.00;100872.14;1456521;89;22337;-77
2024/01/13 01:11:36;;;;;;;60.15;32.05;;;;;;;-2.50;100.00;100873.89;1457454;90;22631;-77
2024/01/13 01:14:02;;;;;;;55.67;31.48;;;;;;;-2.54;100.00;100870.14;1449002;90;21479;-78
2024/01/13 01:16:28;;;;;;;58.35;32.05;;;;;;;-2.53;100.00;100864.09;1454374;90;21649;-78
2024/01/13 01:18:55;;;;;;;55.48;29.80;;;;;;;-2.53;100.00;100864.09;1453178;89;21434;-78
2024/01/13 01:21:21;;;;;;;55.17;30.45;;;;;;;-2.54;100.00;100854.14;1444738;88;21649;-76
2024/01/13 01:23:48;;;;;;;58.08;32.48;;;;;;;-2.55;100.00;100848.58;1447660;90;22565;-78
2024/01/13 01:26:14;;;;;;;57.00;30.40;;;;;;;-2.53;100.00;100847.23;1463724;88;21433;-78
2024/01/13 01:28:40;;;;;;;63.25;34.18;;;;;;;-2.53;100.00;100843.35;1457286;88;21718;-78
2024/01/13 01:31:07;;;;;;;64.22;33.33;;;;;;;-2.55;100.00;100845.14;1453289;88;21464;-78
2024/01/13 01:33:34;;;;;;;59.80;32.03;;;;;;;-2.57;100.00;100843.05;1456746;88;22734;-78
2024/01/13 01:36:00;;;;;;;58.45;29.42;;;;;;;-2.58;100.00;100843.95;1446347;88;21458;-78
2024/01/13 01:38:26;;;;;;;63.87;32.53;;;;;;;-2.61;100.00;100843.61;1420343;90;21465;-79
2024/01/13 01:40:56;;;;;;;54.18;30.72;;;;;;;-2.69;100.00;100843.48;1457714;88;21457;-80
2024/01/13 01:43:22;;;;;;;57.45;30.70;;;;;;;-2.73;100.00;100845.34;1455445;90;21456;-80
2024/01/13 01:45:54;;;;;;;52.60;31.42;;;;;;;-2.78;100.00;100839.01;1443174;90;21346;-80
2024/01/13 01:48:29;;;;;;;52.33;27.27;;;;;;;-2.80;100.00;100829.14;1452310;88;21522;-79
2024/01/13 01:50:55;;;;;;;60.03;33.98;;;;;;;-2.84;100.00;100817.20;1458273;88;21441;-79
2024/01/13 01:53:22;;;;;;;63.15;31.93;;;;;;;-2.84;100.00;100822.84;1449448;90;21485;-79
2024/01/13 01:55:48;;;;;;;59.73;30.30;;;;;;;-2.86;100.00;100820.28;1460483;90;21471;-79
2024/01/13 01:58:15;;;;;;;57.95;32.67;;;;;;;-2.83;100.00;100814.16;1453598;88;21685;-79
2024/01/13 02:00:42;;;;;;;74.50;33.42;;;;;;;-2.83;100.00;100800.75;1455943;88;21537;-79
2024/01/13 02:03:08;;;;;;;61.73;32.28;;;;;;;-2.84;100.00;100800.82;1446590;90;21405;-77
2024/01/13 02:05:35;;;;;;;58.20;29.05;;;;;;;-2.86;100.00;100808.62;1458912;88;21471;-77
2024/01/13 02:08:01;;;;;;;58.13;32.00;;;;;;;-2.87;100.00;100808.24;1448741;88;21585;-77
2024/01/13 02:10:29;;;;;;;56.60;30.45;;;;;;;-2.83;100.00;100806.38;1451170;88;21501;-77
2024/01/13 02:12:55;;;;;;;63.63;32.75;;;;;;;-2.85;100.00;100808.17;1444991;90;21627;-77
2024/01/13 02:15:21;;;;;;;61.48;32.45;;;;;;;-2.89;100.00;100810.03;1453221;90;21405;-77
2024/01/13 02:17:48;;;;;;;56.37;30.40;;;;;;;-2.92;100.00;100804.12;1453742;89;21515;-77
2024/01/13 02:20:14;;;;;;;67.85;34.55;;;;;;;-2.95;100.00;100797.30;1456166;89;21479;-77
2024/01/13 02:22:40;;;;;;;55.40;29.07;;;;;;;-3.00;100.00;100792.72;1452579;90;21523;-77
2024/01/13 02:25:08;;;;;;;60.17;30.27;;;;;;;-3.02;100.00;100800.55;1451226;88;21382;-77
2024/01/13 02:27:35;;;;;;;55.73;29.30;;;;;;;-3.01;100.00;100793.17;1450613;88;21641;-77
2024/01/13 02:30:01;;;;;;;63.45;33.02;;;;;;;-3.00;100.00;100791.42;1452852;90;21441;-77
2024/01/13 02:32:28;;;;;;;66.33;34.15;;;;;;;-2.99;100.00;100787.95;1447555;90;21486;-76
2024/01/13 02:34:54;;;;;;;53.42;29.15;;;;;;;-2.98;100.00;100792.23;1451860;88;21404;-77
2024/01/13 02:37:20;;;;;;;59.65;30.97;;;;;;;-3.00;100.00;100790.97;1445456;90;22373;-76
2024/01/13 02:39:46;;;;;;;53.63;28.52;;;;;;;-3.00;100.00;100792.72;1446296;90;21405;-77
2024/01/13 02:42:12;;;;;;;64.25;32.50;;;;;;;-3.02;100.00;100786.31;1443252;88;21534;-77
2024/01/13 02:44:39;;;;;;;56.75;29.63;;;;;;;-3.06;100.00;100791.63;1449990;90;21523;-77
2024/01/13 02:47:05;;;;;;;55.88;30.65;;;;;;;-3.07;100.00;100788.20;1457270;90;22499;-77
2024/01/13 02:49:31;;;;;;;56.08;30.57;;;;;;;-3.13;100.00;100782.40;1454666;88;21634;-77
2024/01/13 02:51:58;;;;;;;52.25;28.75;;;;;;;-3.15;100.00;100784.19;1449448;90;22293;-77
2024/01/13 02:54:24;;;;;;;57.75;27.65;;;;;;;-3.20;100.00;100777.40;1456825;90;21404;-77
2024/01/13 02:56:50;;;;;;;53.95;30.55;;;;;;;-3.22;100.00;100775.33;1456328;88;21449;-79
2024/01/13 02:59:16;;;;;;;51.33;27.22;;;;;;;-3.26;100.00;100777.61;1455742;90;22329;-79
2024/01/13 03:01:43;;;;;;;62.73;31.57;;;;;;;-3.30;100.00;100778.63;1446906;88;21618;-79
2024/01/13 03:04:09;;;;;;;52.43;27.70;;;;;;;-3.34;100.00;100766.66;1463508;88;21508;-77
2024/01/13 03:06:35;;;;;;;57.78;30.35;;;;;;;-3.38;100.00;100766.83;1455829;90;22240;-77
2024/01/13 03:09:01;;;;;;;54.80;29.82;;;;;;;-3.41;100.00;100771.66;1448566;90;22513;-77
2024/01/13 03:11:28;;;;;;;58.73;31.90;;;;;;;-3.45;100.00;100768.78;1451722;90;21383;-77
2024/01/13 03:13:55;;;;;;;55.78;31.82;;;;;;;-3.46;100.00;100761.89;1450295;90;21354;-78
2024/01/13 03:16:21;;;;;;;52.13;27.10;;;;;;;-3.48;100.00;100753.33;1443997;90;21523;-78
2024/01/13 03:18:48;;;;;;;54.58;29.82;;;;;;;-3.49;100.00;100746.47;1448504;88;22521;-77
2024/01/13 03:21:14;;;;;;;53.28;28.32;;;;;;;-3.50;100.00;100738.33;1448013;90;22344;-77
2024/01/13 03:23:41;;;;;;;49.63;27.25;;;;;;;-3.51;100.00;100737.91;1458462;90;21420;-77
2024/01/13 03:26:07;;;;;;;57.60;30.92;;;;;;;-3.54;100.00;100723.78;1449032;90;22226;-77
2024/01/13 03:28:33;;;;;;;49.35;27.67;;;;;;;-3.58;100.00;100729.52;1452119;90;22263;-78
2024/01/13 03:30:59;;;;;;;58.05;30.52;;;;;;;-3.63;100.00;100728.35;1460223;90;21434;-78
2024/01/13 03:33:26;;;;;;;60.88;29.02;;;;;;;-3.66;100.00;100725.03;1451882;90;21619;-79
2024/01/13 03:35:52;;;;;;;57.43;29.80;;;;;;;-3.68;100.00;100728.14;1450701;88;21457;-77
2024/01/13 03:38:19;;;;;;;53.48;28.57;;;;;;;-3.74;100.00;100721.84;1452042;90;21368;-77
2024/01/13 03:40:45;;;;;;;48.02;26.57;;;;;;;-3.79;100.00;100723.30;1455061;90;21472;-76
2024/01/13 03:43:11;;;;;;;50.55;27.95;;;;;;;-3.81;100.00;100719.91;1443043;90;21508;-77
2024/01/13 03:45:37;;;;;;;60.28;31.27;;;;;;;-3.84;100.00;100714.00;1457696;90;21405;-79
2024/01/13 03:48:04;;;;;;;51.85;27.20;;;;;;;-3.88;100.00;100705.05;1461213;90;21471;-77
2024/01/13 03:50:30;;;;;;;53.45;26.95;;;;;;;-3.90;100.00;100704.69;1440738;90;21619;-78
2024/01/13 03:52:56;;;;;;;51.30;27.45;;;;;;;-3.93;100.00;100699.17;1459489;88;22501;-78
2024/01/13 03:55:22;;;;;;;52.85;26.30;;;;;;;-3.94;100.00;100703.95;1454476;90;21472;-81
2024/01/13 03:57:48;;;;;;;52.60;27.00;;;;;;;-3.94;100.00;100700.50;1444894;90;21376;-78
2024/01/13 04:00:16;;;;;;;47.50;25.15;;;;;;;-3.98;100.00;100697.17;1453115;88;21420;-78
2024/01/13 04:02:42;;;;;;;48.17;25.43;;;;;;;-4.02;100.00;100694.30;1450814;90;21516;-77
2024/01/13 04:05:08;;;;;;;49.58;26.07;;;;;;;-4.05;100.00;100694.84;1446150;88;21331;-79
2024/01/13 04:07:34;;;;;;;56.83;28.15;;;;;;;-4.07;100.00;100703.09;1451784;88;21538;-79
2024/01/13 04:10:00;;;;;;;53.78;27.35;;;;;;;-4.09;100.00;100708.30;1454200;88;21486;-79
2024/01/13 04:12:27;;;;;;;52.50;26.02;;;;;;;-4.12;100.00;100701.48;1452215;90;21310;-80
2024/01/13 04:14:53;;;;;;;49.77;25.17;;;;;;;-4.16;100.00;100708.09;1453759;90;21546;-79
2024/01/13 04:17:19;;;;;;;50.40;26.73;;;;;;;-4.18;100.00;100713.30;1448424;90;21376;-79
2024/01/13 04:19:45;;;;;;;59.33;27.52;;;;;;;-4.19;100.00;100709.03;1455184;89;21390;-77
2024/01/13 04:22:12;;;;;;;52.67;25.62;;;;;;;-4.17;100.00;100715.02;1442155;90;21392;-78
2024/01/13 04:24:38;;;;;;;56.65;27.77;;;;;;;-4.17;100.00;100721.48;1456752;89;21451;-79
2024/01/13 04:27:04;;;;;;;51.90;27.27;;;;;;;-4.18;100.00;100716.34;1452652;89;21519;-78
2024/01/13 04:29:31;;;;;;;51.18;26.55;;;;;;;-4.19;100.00;100718.08;1443169;90;22424;-79
2024/01/13 04:31:57;;;;;;;49.70;25.97;;;;;;;-4.20;100.00;100719.41;1439779;89;21471;-79
2024/01/13 04:34:23;;;;;;;55.58;27.73;;;;;;;-4.24;100.00;100712.66;1454771;90;21316;-79
2024/01/13 04:36:49;;;;;;;46.68;24.52;;;;;;;-4.28;100.00;100712.36;1449565;90;21346;-79
2024/01/13 04:39:15;;;;;;;47.05;25.62;;;;;;;-4.33;100.00;100715.07;1446809;90;22410;-78
2024/01/13 04:41:41;;;;;;;54.00;28.12;;;;;;;-4.36;100.00;100719.04;1454875;89;22514;-78
2024/01/13 04:44:08;;;;;;;58.35;29.57;;;;;;;-4.38;100.00;100716.48;1449538;89;21384;-79
2024/01/13 04:46:35;;;;;;;59.98;30.32;;;;;;;-4.44;100.00;100721.84;1450301;89;21546;-78
2024/01/13 04:49:01;;;;;;;53.70;27.85;;;;;;;-4.49;100.00;100725.00;1452317;89;21629;-78
2024/01/13 04:51:28;;;;;;;59.67;29.75;;;;;;;-4.51;100.00;100724.67;1449420;89;21487;-79
2024/01/13 04:53:56;;;;;;;58.52;29.55;;;;;;;-4.55;100.00;100733.77;1456428;89;21427;-78
2024/01/13 04:56:23;;;;;;;58.98;30.12;;;;;;;-4.57;100.00;100730.41;1451286;89;21486;-77
2024/01/13 04:58:49;;;;;;;56.23;29.80;;;;;;;-4.59;100.00;100738.64;1455793;90;22196;-78
2024/01/13 05:01:16;;;;;;;65.30;30.05;;;;;;;-4.61;100.00;100739.57;1451185;88;21427;-79
2024/01/13 05:03:42;;;;;;;59.05;29.70;;;;;;;-4.65;100.00;100739.27;1448354;88;21369;-78
2024/01/13 05:06:08;;;;;;;67.45;33.45;;;;;;;-4.70;100.00;100745.84;1456452;89;22239;-77
2024/01/13 05:08:35;;;;;;;65.92;33.75;;;;;;;-4.70;100.00;100745.84;1454452;89;21496;-79
2024/01/13 05:11:01;;;;;;;63.33;32.55;;;;;;;-4.74;100.00;100739.09;1457091;89;21331;-79
2024/01/13 05:13:27;;;;;;;62.93;30.15;;;;;;;-4.78;100.00;100737.46;1446104;89;21362;-78
2024/01/13 05:15:53;;;;;;;64.95;30.85;;;;;;;-4.79;100.00;100739.65;1457275;89;21516;-79
2024/01/13 05:18:20;;;;;;;78.02;35.13;;;;;;;-4.82;100.00;100741.03;1460507;89;21383;-78
2024/01/13 05:20:46;;;;;;;74.15;29.77;;;;;;;-4.84;100.00;100731.18;1452094;90;21486;-78
2024/01/13 05:23:13;;;;;;;63.17;30.82;;;;;;;-4.84;100.00;100728.15;1444964;89;22224;-79
2024/01/13 05:25:39;;;;;;;62.60;30.17;;;;;;;-4.82;100.00;100735.86;1447909;90;21662;-79
2024/01/13 05:28:05;;;;;;;60.65;29.40;;;;;;;-4.80;100.00;100726.35;1458051;88;21398;-79
2024/01/13 05:30:32;;;;;;;64.07;31.93;;;;;;;-4.77;100.00;100726.27;1447814;89;22248;-78
2024/01/13 05:33:00;;;;;;;52.17;25.97;;;;;;;-4.69;100.00;100725.61;1441547;90;21413;-79
2024/01/13 05:35:26;;;;;;;58.35;27.25;;;;;;;-4.64;100.00;100725.00;1451021;89;22468;-79
2024/01/13 05:37:52;;;;;;;48.75;26.50;;;;;;;-4.60;100.00;100718.87;1458193;89;21545;-79
2024/01/13 05:40:22;;;;;;;50.80;24.25;;;;;;;-4.55;100.00;100719.56;1444916;89;21310;-79
2024/01/13 05:42:48;;;;;;;52.67;27.02;;;;;;;-4.54;100.00;100710.95;1453673;89;21369;-79
2024/01/13 05:45:14;;;;;;;50.05;26.37;;;;;;;-4.48;100.00;100712.50;1454944;89;21376;-79
2024/01/13 05:47:40;;;;;;;51.40;26.68;;;;;;;-4.47;100.00;100712.05;1450827;89;21376;-79
2024/01/13 05:50:08;;;;;;;54.53;27.50;;;;;;;-4.45;100.00;100706.41;1450307;90;22301;-79
2024/01/13 05:52:36;;;;;;;54.30;29.40;;;;;;;-4.42;100.00;100708.89;1451408;89;21982;-79
2024/01/13 05:55:03;;;;;;;59.80;30.75;;;;;;;-4.41;100.00;100701.08;1458445;89;22315;-79
2024/01/13 05:57:30;;;;;;;55.48;30.43;;;;;;;-4.37;100.00;100701.86;1447847;90;21612;-78
2024/01/13 05:59:56;;;;;;;50.80;24.52;;;;;;;-4.36;100.00;100700.95;1447492;90;21442;-78
2024/01/13 06:02:22;;;;;;;48.17;23.65;;;;;;;-4.36;100.00;100704.83;1448307;89;21458;-79
2024/01/13 06:04:48;;;;;;;53.90;26.42;;;;;;;-4.39;100.00;100693.30;1458045;89;21442;-79
2024/01/13 06:07:14;;;;;;;47.67;24.12;;;;;;;-4.37;100.00;100704.44;1451316;90;22305;-79
2024/01/13 06:09:40;;;;;;;53.58;26.55;;;;;;;-4.40;100.00;100708.37;1456795;90;21479;-79
2024/01/13 06:12:09;;;;;;;49.90;27.10;;;;;;;-4.41;100.00;100697.20;1452967;90;21383;-79
2024/01/13 06:14:35;;;;;;;44.38;23.85;;;;;;;-4.43;100.00;100699.42;1444035;89;22285;-79
2024/01/13 06:17:02;;;;;;;49.23;25.37;;;;;;;-4.39;100.00;100699.75;1453130;89;21406;-78
2024/01/13 06:19:28;;;;;;;52.58;25.27;;;;;;;-4.40;100.00;100700.63;1446786;89;22284;-79
2024/01/13 06:21:55;;;;;;;45.52;22.45;;;;;;;-4.39;100.00;100701.05;1456218;88;22299;-79
2024/01/13 06:24:21;;;;;;;45.60;23.02;;;;;;;-4.37;100.00;100700.56;1452838;89;21384;-79
2024/01/13 06:26:47;;;;;;;46.90;23.57;;;;;;;-4.39;100.00;100709.64;1454943;88;21457;-79
2024/01/13 06:29:13;;;;;;;46.30;25.35;;;;;;;-4.36;100.00;100707.41;1461950;88;22366;-79
2024/01/13 06:31:39;;;;;;;51.08;26.48;;;;;;;-4.34;100.00;100712.09;1454092;89;21325;-79
2024/01/13 06:34:05;;;;;;;51.18;25.88;;;;;;;-4.34;100.00;100725.86;1454729;88;21367;-78
2024/01/13 06:36:32;;;;;;;46.95;25.48;;;;;;;-4.31;100.00;100733.97;1459198;88;21427;-79
2024/01/13 06:38:58;;;;;;;48.23;24.90;;;;;;;-4.32;100.00;100724.50;1458437;89;21695;-80
2024/01/13 06:41:25;;;;;;;47.60;25.08;;;;;;;-4.30;100.00;100714.98;1453859;89;21353;-78
2024/01/13 06:43:51;;;;;;;53.28;27.82;;;;;;;-4.33;100.00;100719.78;1456655;90;21377;-79
2024/01/13 06:46:17;;;;;;;48.48;25.12;;;;;;;-4.31;100.00;100721.05;1452644;88;21583;-79
2024/01/13 06:48:44;;;;;;;55.65;27.20;;;;;;;-4.32;100.00;100725.80;1455962;89;21339;-78
2024/01/13 06:51:10;;;;;;;48.78;27.60;;;;;;;-4.34;100.00;100731.48;1445204;88;21353;-79
2024/01/13 06:53:36;;;;;;;54.55;26.52;;;;;;;-4.35;100.00;100720.72;1440178;90;21657;-77
2024/01/13 06:56:03;;;;;;;58.58;29.98;;;;;;;-4.39;100.00;100725.14;1447648;90;21413;-77
2024/01/13 06:58:29;;;;;;;52.35;27.37;;;;;;;-4.39;100.00;100724.30;1454455;89;21324;-78
2024/01/13 07:00:55;;;;;;;52.60;27.32;;;;;;;-4.41;100.00;100713.16;1447790;89;21501;-78
2024/01/13 07:03:22;;;;;;;48.45;24.92;;;;;;;-4.45;100.00;100716.73;1452846;89;21427;-79
2024/01/13 07:05:48;;;;;;;54.45;28.25;;;;;;;-4.51;100.00;100719.50;1452778;89;21963;-79
2024/01/13 07:08:14;;;;;;;56.00;27.05;;;;;;;-4.54;100.00;100720.44;1447917;89;21339;-79
2024/01/13 07:10:40;;;;;;;52.43;28.70;;;;;;;-4.55;100.00;100727.31;1456421;89;21442;-78
2024/01/13 07:13:07;;;;;;;62.83;29.27;;;;;;;-4.52;100.00;100728.13;1453573;90;21258;-77
2024/01/13 07:15:33;;;;;;;68.12;32.48;;;;;;;-4.51;100.00;100726.80;1441432;90;21419;-79
2024/01/13 07:18:01;;;;;;;51.85;29.57;;;;;;;-4.45;100.00;100732.23;1459523;90;21524;-79
2024/01/13 07:20:27;;;;;;;64.65;29.35;;;;;;;-4.39;100.00;100734.19;1457510;89;22219;-79
2024/01/13 07:22:54;;;;;;;61.20;31.60;;;;;;;-4.32;100.00;100737.42;1453628;88;21488;-79
2024/01/13 07:25:20;;;;;;;58.68;31.48;;;;;;;-4.25;100.00;100740.24;1451863;89;21450;-79
2024/01/13 07:27:47;;;;;;;58.15;30.48;;;;;;;-4.20;100.00;100737.08;1447401;89;22226;-78
2024/01/13 07:30:14;;;;;;;63.10;29.50;;;;;;;-4.17;100.00;100746.03;1450967;89;21427;-78
2024/01/13 07:32:40;;;;;;;55.85;28.32;;;;;;;-4.12;100.00;100742.00;1453559;90;22484;-78
2024/01/13 07:35:07;;;;;;;66.70;28.70;;;;;;;-4.07;100.00;100750.92;1444022;88;21412;-78
2024/01/13 07:37:34;;;;;;;58.50;30.57;;;;;;;-4.03;100.00;100749.92;1461989;90;21361;-78
2024/01/13 07:40:00;;;;;;;54.08;28.52;;;;;;;-3.98;100.00;100750.62;1447613;90;21523;-79
2024/01/13 07:42:26;;;;;;;61.55;30.72;;;;;;;-3.93;100.00;100748.75;1451917;90;21383;-79
2024/01/13 07:44:53;;;;;;;62.55;31.60;;;;;;;-3.85;100.00;100758.42;1450298;90;21515;-78
2024/01/13 07:47:19;;;;;;;57.53;29.72;;;;;;;-3.76;100.00;100746.48;1452434;90;21339;-78
2024/01/13 07:49:45;;;;;;;57.50;27.42;;;;;;;-3.58;100.00;100753.25;1453472;89;22506;-78
2024/01/13 07:52:11;;;;;;;57.35;28.50;;;;;;;-3.52;100.00;100756.47;1457633;90;22300;-77
2024/01/13 07:54:37;;;;;;;45.90;23.27;;;;;;;-3.42;100.00;100753.16;1458631;90;22373;-78
2024/01/13 07:57:04;;;;;;;46.85;24.72;;;;;;;-3.41;100.00;100751.80;1450579;89;21500;-79
2024/01/13 07:59:30;;;;;;;45.28;21.48;;;;;;;-3.41;100.00;100752.25;1439872;90;21552;-78
2024/01/13 08:01:56;;;;;;;44.58;22.15;;;;;;;-3.37;100.00;100748.64;1456020;90;21354;-78
2024/01/13 08:04:22;;;;;;;44.20;20.90;;;;;;;-3.34;100.00;100752.42;1452133;89;21345;-78
2024/01/13 08:06:49;;;;;;;41.63;23.40;;;;;;;-3.33;100.00;100750.70;1450715;90;21324;-78
2024/01/13 08:09:17;;;;;;;44.65;23.40;;;;;;;-3.29;100.00;100747.11;1438208;90;22476;-77
2024/01/13 08:11:43;;;;;;;51.10;26.12;;;;;;;-3.29;100.00;100743.22;1456446;89;21375;-77
2024/01/13 08:14:09;;;;;;;42.70;23.83;;;;;;;-3.27;100.00;100742.73;1452603;90;22388;-78
2024/01/13 08:16:35;;;;;;;44.80;22.35;;;;;;;-3.23;100.00;100741.26;1447891;90;22329;-78
2024/01/13 08:19:02;;;;;;;41.58;24.72;;;;;;;-3.23;100.00;100733.49;1455171;90;21397;-79
2024/01/13 08:21:28;;;;;;;41.05;23.92;;;;;;;-3.22;100.00;100726.14;1445800;90;21568;-78
2024/01/13 08:23:55;;;;;;;47.95;25.45;;;;;;;-3.16;100.00;100718.62;1456405;88;21391;-79
2024/01/13 08:26:25;;;;;;;40.40;23.85;;;;;;;-3.10;100.00;100715.81;1454856;90;21323;-77
2024/01/13 08:28:51;;;;;;;41.10;23.30;;;;;;;-3.07;100.00;100712.27;1453946;90;22270;-77
2024/01/13 08:31:17;;;;;;;38.98;21.15;;;;;;;-3.03;100.00;100709.95;1450744;90;21361;-78
2024/01/13 08:33:43;;;;;;;41.70;21.27;;;;;;;-2.99;100.00;100721.91;1455021;88;21398;-79
2024/01/13 08:36:10;;;;;;;42.20;23.15;;;;;;;-3.05;100.00;100716.92;1453417;89;21457;-77
2024/01/13 08:38:36;;;;;;;56.40;28.12;;;;;;;-3.12;100.00;100716.76;1454870;89;22188;-78
2024/01/13 08:41:02;;;;;;;46.80;24.15;;;;;;;-3.11;100.00;100722.32;1446714;90;21832;-79
2024/01/13 08:43:28;;;;;;;53.80;27.73;;;;;;;-3.09;100.00;100721.83;1448371;90;22240;-78
2024/01/13 08:45:55;;;;;;;49.23;26.65;;;;;;;-3.05;100.00;100726.86;1442626;90;21560;-79
2024/01/13 08:48:21;;;;;;;42.80;22.00;;;;;;;-3.01;100.00;100731.02;1453975;90;21365;-79
2024/01/13 08:50:49;;;;;;;45.33;25.88;;;;;;;-2.99;100.00;100744.77;1452789;90;21501;-79
2024/01/13 08:53:15;;;;;;;52.45;26.57;;;;;;;-2.93;100.00;100752.77;1456308;88;21375;-79
2024/01/13 08:55:41;;;;;;;42.10;23.77;;;;;;;-2.87;100.00;100751.26;1453357;90;21398;-78
2024/01/13 08:58:07;;;;;;;41.25;23.32;;;;;;;-2.81;100.00;100753.62;1454630;88;21324;-79
2024/01/13 09:00:34;;;;;;;41.75;22.52;;;;;;;-2.74;100.00;100756.38;1447286;88;22377;-79
2024/01/13 09:03:00;;;;;;;37.13;19.65;;;;;;;-2.74;100.00;100756.38;1448946;90;22263;-78
2024/01/13 09:05:27;;;;;;;38.98;21.30;;;;;;;-2.74;100.00;100760.27;1452070;90;22388;-77
2024/01/13 09:07:54;;;;;;;41.63;21.52;;;;;;;-2.73;100.00;100762.43;1458728;88;21361;-76
2024/01/13 09:10:21;;;;;;;39.00;22.27;;;;;;;-2.73;100.00;100761.97;1456252;88;21560;-78
2024/01/13 09:12:47;;;;;;;50.83;24.75;;;;;;;-2.65;100.00;100759.09;1446194;88;22358;-79
2024/01/13 09:15:13;;;;;;;47.13;27.05;;;;;;;-2.60;100.00;100762.36;1446006;88;21498;-79
2024/01/13 09:17:40;;;;;;;51.18;28.73;;;;;;;-2.46;100.00;100761.86;1463387;90;21552;-91
2024/01/13 09:20:09;;;;;;;53.25;27.30;;;;;;;-2.32;100.00;100763.95;1453150;89;22279;-86
2024/01/13 09:22:36;;;;;;;48.70;25.77;;;;;;;-2.12;100.00;100758.02;1447802;89;21539;-86
2024/01/13 09:25:03;;;;;;;55.17;27.75;;;;;;;-1.94;100.00;100761.64;1458147;89;21471;-89
2024/01/13 09:27:29;;;;;;;52.48;26.65;;;;;;;-1.80;100.00;100754.61;1451392;89;22507;-78
2024/01/13 09:29:56;;;;;;;42.83;26.25;;;;;;;-1.71;100.00;100751.19;1452495;89;21442;-79
2024/01/13 09:32:22;;;;;;;43.00;24.92;;;;;;;-1.63;100.00;100749.59;1448605;90;21583;-80
2024/01/13 09:34:48;;;;;;;47.93;25.03;;;;;;;-1.59;100.00;100742.06;1447855;89;21875;-79
2024/01/13 09:37:15;;;;;;;42.27;24.12;;;;;;;-1.54;100.00;100733.64;1448197;90;21560;-79
2024/01/13 09:39:41;;;;;;;44.40;24.65;;;;;;;-1.54;100.00;100729.74;1456957;90;21382;-79
2024/01/13 09:42:08;;;;;;;40.70;23.57;;;;;;;-1.46;100.00;100719.05;1440076;90;21280;-79
2024/01/13 09:44:35;;;;;;;41.60;23.87;;;;;;;-1.31;100.00;100714.96;1454797;89;21894;-78
2024/01/13 09:47:02;;;;;;;48.70;26.60;;;;;;;-1.17;100.00;100702.23;1451177;90;21612;-78
2024/01/13 09:49:30;;;;;;;38.87;23.17;;;;;;;-0.99;97.75;100697.98;1445762;89;21802;-79
2024/01/13 09:52:00;;;;;;;41.83;23.70;;;;;;;-0.29;90.56;100696.10;1446357;90;21565;-79
2024/01/13 09:54:28;;;;;;;36.70;21.37;;;;;;;0.33;82.96;100684.87;1452741;89;21449;-77
2024/01/13 09:56:56;;;;;;;40.80;24.70;;;;;;;0.65;79.26;100684.55;1446972;90;21444;-77
2024/01/13 09:59:25;;;;;;;43.30;24.53;;;;;;;1.39;74.70;100675.96;1453090;89;22783;-77
2024/01/13 10:01:53;;;;;;;34.60;19.73;;;;;;;1.39;74.70;100675.96;1440135;88;21713;-77
2024/01/13 10:04:19;;;;;;;33.83;20.90;;;;;;;1.90;72.35;100668.77;1442173;88;22991;-77
2024/01/13 10:06:47;;;;;;;34.97;21.47;;;;;;;2.14;68.69;100666.09;1447325;90;23073;-76
2024/01/13 10:09:14;;;;;;;50.23;28.00;;;;;;;2.33;67.67;100658.05;1449309;90;22185;-77
2024/01/13 10:11:42;;;;;;;42.17;23.70;;;;;;;2.59;67.12;100664.80;1452573;90;22418;-76
2024/01/13 10:14:10;;;;;;;39.97;24.73;;;;;;;2.52;66.27;100659.10;1452346;90;22114;-78
2024/01/13 10:16:37;;;;;;;33.83;21.73;;;;;;;2.40;67.16;100662.44;1448666;88;22237;-77
2024/01/13 10:19:06;;;;;;;56.43;26.33;;;;;;;2.41;67.32;100652.36;1459329;89;22126;-77
2024/01/13 10:21:33;;;;;;;34.53;21.27;;;;;;;2.53;66.81;100662.08;1456928;89;21508;-77
2024/01/13 10:24:03;;;;;;;34.83;22.43;;;;;;;2.55;65.31;100662.84;1450533;90;21501;-77
2024/01/13 10:26:31;;;;;;;32.93;21.27;;;;;;;2.77;65.14;100658.97;1441849;89;22449;-76
2024/01/13 10:28:58;;;;;;;32.67;21.27;;;;;;;2.69;64.76;100662.86;1451233;89;21369;-76
2024/01/13 10:31:26;;;;;;;36.33;22.30;;;;;;;2.84;64.82;100658.95;1449875;89;21464;-77
2024/01/13 10:33:53;;;;;;;35.23;22.13;;;;;;;2.98;63.11;100661.58;1443177;89;21375;-77
2024/01/13 10:36:29;;;;;;;35.27;21.37;;;;;;;2.92;63.32;100656.25;1448554;90;21399;-78
2024/01/13 10:38:52;;;;;;;39.47;22.67;;;;;;;2.93;63.72;100659.70;1451509;90;21561;-78
2024/01/13 10:41:27;;;;;;;42.90;24.80;;;;;;;2.98;64.79;100656.34;1447880;89;22300;-78
2024/01/13 10:43:56;;;;;;;32.23;20.70;;;;;;;2.89;63.14;100659.53;1455617;89;22490;-77
2024/01/13 10:46:25;;;;;;;30.90;20.30;;;;;;;2.78;63.81;100656.72;1459201;90;21317;-77
2024/01/13 10:49:02;;;;;;;34.23;20.90;;;;;;;2.62;62.33;100660.25;1452541;89;21324;-78
2024/01/13 10:51:36;;;;;;;35.63;23.23;;;;;;;2.52;63.15;100656.96;1455773;90;22344;-77
2024/01/13 10:54:06;;;;;;;34.97;20.20;;;;;;;2.64;64.36;100641.38;1453261;90;21353;-78
2024/01/13 10:56:35;;;;;;;34.20;22.60;;;;;;;2.63;62.94;100635.79;1458674;89;21594;-78
2024/01/13 10:59:02;;;;;;;33.23;21.50;;;;;;;2.68;62.12;100636.36;1449727;89;21302;-78
2024/01/13 11:01:28;;;;;;;34.90;20.53;;;;;;;2.67;62.31;100639.89;1454113;90;22278;-78